Time;durP1;ratioP1;P1;durP2;ratioP2;P2;SDS_P1;SDS_P2;PMS_P1;PMS_P2;Temp;Humidity;BMP_temperature;BMP_pressure;BME280_temperature;BME280_humidity;BME280_pressure;Samples;Min_cycle;Max_cycle;Signal;HPM_P1;HPM_P2
2023/08/28 00:00:50;;;;;;;8.05;3.80;;;;;;;12.46;100.00;101014.16;5515245;23;20063;-79
2023/08/28 00:03:21;;;;;;;5.07;3.77;;;;;;;12.47;100.00;101020.25;5190595;28;20467;-79
2023/08/28 00:05:53;;;;;;;6.73;3.80;;;;;;;12.47;100.00;101017.63;5181389;28;20039;-78
2023/08/28 00:08:24;;;;;;;6.53;3.43;;;;;;;12.44;100.00;101008.06;5182830;28;20102;-78
2023/08/28 00:10:59;;;;;;;4.03;3.33;;;;;;;12.34;100.00;101009.13;5195997;28;20458;-78
2023/08/28 00:13:30;;;;;;;4.85;3.80;;;;;;;12.42;100.00;101011.63;5200645;28;20030;-78
2023/08/28 00:16:02;;;;;;;8.60;4.23;;;;;;;12.30;100.00;101010.94;5200805;28;20034;-78
2023/08/28 00:18:33;;;;;;;6.97;4.38;;;;;;;12.26;100.00;101009.25;5200598;28;20038;-79
2023/08/28 00:21:05;;;;;;;6.40;4.00;;;;;;;12.21;100.00;101005.84;5200775;28;20030;-79
2023/08/28 00:23:36;;;;;;;6.53;4.23;;;;;;;12.20;100.00;100999.78;5200680;28;20026;-80
2023/08/28 00:26:07;;;;;;;5.17;3.80;;;;;;;12.23;100.00;101001.44;5183043;28;20034;-80
2023/08/28 00:28:39;;;;;;;6.43;4.20;;;;;;;12.20;100.00;100998.88;5200519;28;20077;-78
2023/08/28 00:31:10;;;;;;;6.23;4.17;;;;;;;12.16;100.00;100992.00;5182478;28;20037;-78
2023/08/28 00:33:41;;;;;;;5.13;4.00;;;;;;;12.15;100.00;100998.09;5200500;28;20037;-78
2023/08/28 00:36:13;;;;;;;7.60;5.27;;;;;;;12.08;100.00;100999.09;5200461;28;20034;-82
2023/08/28 00:38:44;;;;;;;6.13;4.63;;;;;;;11.99;100.00;100990.53;5200485;28;20113;-79
2023/08/28 00:41:15;;;;;;;4.73;4.23;;;;;;;12.09;100.00;100988.63;5200333;28;20437;-79
2023/08/28 00:43:47;;;;;;;6.07;4.87;;;;;;;11.93;100.00;100984.50;5200409;28;20031;-80
2023/08/28 00:46:18;;;;;;;7.17;4.23;;;;;;;11.96;100.00;100987.06;5200396;28;20031;-79
2023/08/28 00:48:50;;;;;;;5.67;4.20;;;;;;;11.88;100.00;100983.69;5201461;28;20096;-79
2023/08/28 00:51:21;;;;;;;8.07;4.40;;;;;;;11.92;100.00;100988.00;5202146;28;20141;-81
2023/08/28 00:53:53;;;;;;;5.47;4.53;;;;;;;11.88;100.00;100988.91;5202076;28;20053;-81
2023/08/28 00:56:24;;;;;;;6.20;4.23;;;;;;;11.85;100.00;100977.63;5201527;28;20165;-80
2023/08/28 00:58:56;;;;;;;6.40;4.70;;;;;;;11.85;100.00;100992.44;5201165;28;20500;-79
2023/08/28 01:01:28;;;;;;;8.53;4.67;;;;;;;11.84;100.00;100993.31;5182466;28;20120;-80
2023/08/28 01:03:59;;;;;;;9.40;5.00;;;;;;;11.77;100.00;100983.81;5200157;28;20042;-80
2023/08/28 01:06:45;;;;;;;8.37;5.00;;;;;;;11.72;100.00;100981.31;5183022;28;20078;-79
2023/08/28 01:09:29;;;;;;;8.02;5.30;;;;;;;11.74;100.00;100978.69;5203851;28;20401;-80
2023/08/28 01:12:12;;;;;;;6.03;4.65;;;;;;;11.75;100.00;100983.88;5204306;28;20366;-80
2023/08/28 01:15:14;;;;;;;9.65;5.30;;;;;;;11.68;100.00;100993.53;5205115;28;20034;-78
2023/08/28 01:17:49;;;;;;;9.32;5.20;;;;;;;11.61;100.00;100986.69;5204561;28;20433;-78
2023/08/28 01:20:22;;;;;;;8.77;5.35;;;;;;;11.58;100.00;100986.72;5204485;28;20050;-78
2023/08/28 01:23:14;;;;;;;7.85;5.50;;;;;;;11.57;100.00;100987.59;5204177;28;20122;-78
2023/08/28 01:25:47;;;;;;;7.50;5.68;;;;;;;11.55;100.00;100981.53;5204003;28;20034;-80
2023/08/28 01:28:21;;;;;;;7.90;5.60;;;;;;;11.54;100.00;100973.72;5203734;28;20062;-79
2023/08/28 01:30:53;;;;;;;8.43;6.03;;;;;;;11.50;100.00;100971.16;5203389;28;20030;-78
2023/08/28 01:33:24;;;;;;;9.57;5.80;;;;;;;11.42;100.00;100972.16;5203818;28;20474;-79
2023/08/28 01:36:12;;;;;;;10.33;5.40;;;;;;;11.36;100.00;100972.22;5203576;28;20049;-78
2023/08/28 01:38:52;;;;;;;6.75;5.90;;;;;;;11.37;100.00;100968.75;5203500;28;20418;-78
2023/08/28 01:41:25;;;;;;;9.10;6.35;;;;;;;11.35;100.00;100965.25;5203461;28;20089;-80
2023/08/28 01:44:01;;;;;;;;;;;;;;;11.32;100.00;100963.56;5203666;28;20030;-80
2023/08/28 01:46:33;;;;;;;6.25;5.65;;;;;;;11.37;100.00;100959.16;5203231;28;20380;-78
2023/08/28 01:49:05;;;;;;;;;;;;;;;11.32;100.00;100960.97;5203540;28;20041;-78
2023/08/28 01:51:36;;;;;;;8.57;6.85;;;;;;;11.32;100.00;100950.53;5203128;28;19914;-78
2023/08/28 01:54:08;;;;;;;9.90;7.90;;;;;;;11.26;100.00;100958.44;5185740;28;20516;-79
2023/08/28 01:56:39;;;;;;;8.03;7.23;;;;;;;11.27;100.00;100960.13;5203363;28;20034;-80
2023/08/28 01:59:11;;;;;;;8.63;7.20;;;;;;;11.25;100.00;100959.31;5203094;28;20046;-80
2023/08/28 02:01:42;;;;;;;11.00;7.20;;;;;;;11.19;100.00;100954.16;5202433;28;20061;-79
2023/08/28 02:04:13;;;;;;;9.30;6.53;;;;;;;11.20;100.00;100951.53;5185618;28;20074;-81
2023/08/28 02:06:45;;;;;;;8.53;6.60;;;;;;;11.08;100.00;100944.72;5202638;28;20031;-81
2023/08/28 02:09:16;;;;;;;8.00;7.20;;;;;;;11.17;100.00;100948.94;5202642;28;20034;-79
2023/08/28 02:11:49;;;;;;;8.60;6.43;;;;;;;11.14;100.00;100935.97;5202397;28;20034;-79
2023/08/28 02:14:20;;;;;;;7.43;6.72;;;;;;;11.09;100.00;100927.31;5203052;28;20586;-80
2023/08/28 02:16:51;;;;;;;8.83;7.93;;;;;;;11.03;100.00;100937.81;5185186;28;20042;-79
2023/08/28 02:19:23;;;;;;;9.00;7.20;;;;;;;11.05;100.00;100938.69;5201900;28;20076;-79
2023/08/28 02:21:54;;;;;;;9.00;7.67;;;;;;;11.04;100.00;100934.34;5202746;28;20033;-79
2023/08/28 02:24:26;;;;;;;9.03;7.53;;;;;;;11.04;100.00;100936.97;5202550;28;20065;-79
2023/08/28 02:26:58;;;;;;;11.23;8.17;;;;;;;11.01;100.00;100944.81;5202375;28;20026;-79
2023/08/28 02:29:29;;;;;;;10.38;7.97;;;;;;;10.94;100.00;100950.09;5202320;28;20046;-78
2023/08/28 02:32:01;;;;;;;11.97;7.93;;;;;;;10.94;100.00;100947.50;5184462;28;20042;-79
2023/08/28 02:34:32;;;;;;;10.87;8.40;;;;;;;10.93;100.00;100948.41;5202167;28;20422;-77
2023/08/28 02:37:03;;;;;;;10.33;9.33;;;;;;;10.91;100.00;100949.28;5201795;28;20042;-78
2023/08/28 02:39:35;;;;;;;10.43;8.00;;;;;;;10.88;100.00;100949.31;5202051;28;20429;-79
2023/08/28 02:42:06;;;;;;;11.53;8.07;;;;;;;10.87;100.00;100945.84;5202008;28;20117;-79
2023/08/28 02:44:37;;;;;;;10.47;8.40;;;;;;;10.85;100.00;100947.63;5201868;28;20027;-79
2023/08/28 02:47:09;;;;;;;13.33;8.70;;;;;;;10.80;100.00;100952.00;5184579;28;20030;-79
2023/08/28 02:49:40;;;;;;;11.77;8.00;;;;;;;10.76;100.00;100953.78;5201854;28;20556;-79
2023/08/28 02:52:11;;;;;;;11.63;8.87;;;;;;;10.77;100.00;100957.28;5201597;28;20414;-79
2023/08/28 02:54:43;;;;;;;11.40;7.70;;;;;;;10.70;100.00;100960.81;5201856;28;20113;-79
2023/08/28 02:57:14;;;;;;;11.53;8.37;;;;;;;10.70;100.00;100956.44;5201797;28;20038;-80
2023/08/28 02:59:45;;;;;;;9.80;8.80;;;;;;;10.73;100.00;100955.56;5184410;28;20030;-80
2023/08/28 03:02:17;;;;;;;12.47;8.80;;;;;;;10.67;100.00;100956.47;5201229;28;20093;-79
2023/08/28 03:04:48;;;;;;;10.57;8.53;;;;;;;10.66;100.00;100957.38;5201580;28;20065;-80
2023/08/28 03:07:20;;;;;;;11.97;9.63;;;;;;;10.68;100.00;100967.78;5184049;28;20133;-79
2023/08/28 03:09:51;;;;;;;11.63;9.40;;;;;;;10.62;100.00;100967.84;5201555;28;20034;-79
2023/08/28 03:12:23;;;;;;;12.20;9.83;;;;;;;10.67;100.00;100976.47;5201645;28;20069;-79
2023/08/28 03:14:54;;;;;;;13.13;9.13;;;;;;;10.64;100.00;100979.13;5201503;28;20089;-79
2023/08/28 03:17:25;;;;;;;9.73;8.80;;;;;;;10.65;100.00;100968.69;5184919;28;20070;-79
2023/08/28 03:19:57;;;;;;;10.83;9.50;;;;;;;10.67;100.00;100972.13;5202454;28;20033;-80
2023/08/28 03:22:28;;;;;;;10.77;9.67;;;;;;;10.68;100.00;100967.78;5202286;28;20034;-79
2023/08/28 03:24:59;;;;;;;13.00;10.13;;;;;;;10.77;100.00;100972.91;5201794;28;20097;-79
2023/08/28 03:27:32;;;;;;;13.83;9.57;;;;;;;10.76;100.00;100976.41;5184029;28;20034;-79
2023/08/28 03:30:04;;;;;;;13.13;10.73;;;;;;;10.80;100.00;100975.47;5201251;28;20034;-79
2023/08/28 03:32:35;;;;;;;14.35;11.68;;;;;;;10.87;100.00;100973.69;5199810;28;20490;-78
2023/08/28 03:35:07;;;;;;;15.53;10.97;;;;;;;10.90;100.00;100981.44;5200858;28;20039;-79
2023/08/28 03:37:38;;;;;;;14.43;11.33;;;;;;;10.97;100.00;100982.25;5200983;28;20057;-78
2023/08/28 03:40:10;;;;;;;13.70;10.77;;;;;;;10.97;100.00;100985.72;5201075;28;20041;-79
2023/08/28 03:42:42;;;;;;;11.77;10.55;;;;;;;11.02;100.00;100994.38;5201195;28;20053;-79
2023/08/28 03:45:13;;;;;;;12.03;10.13;;;;;;;11.10;100.00;100999.50;5201008;28;20042;-79
2023/08/28 03:47:44;;;;;;;12.50;11.20;;;;;;;11.10;100.00;101004.72;5200663;28;20027;-79
2023/08/28 03:50:16;;;;;;;14.17;11.33;;;;;;;11.08;100.00;100994.28;5200872;28;20027;-80
2023/08/28 03:52:47;;;;;;;14.77;11.20;;;;;;;11.13;100.00;100997.72;5200903;28;20030;-79
2023/08/28 03:55:19;;;;;;;12.07;10.87;;;;;;;11.15;100.00;100997.69;5200760;28;20034;-80
2023/08/28 03:57:51;;;;;;;13.27;11.07;;;;;;;11.17;100.00;101006.34;5200953;28;20382;-80
2023/08/28 04:00:22;;;;;;;12.35;11.07;;;;;;;11.16;100.00;101012.47;5183569;28;20493;-80
2023/08/28 04:02:53;;;;;;;13.77;11.20;;;;;;;11.24;100.00;101018.47;5200147;28;20081;-80
2023/08/28 04:05:26;;;;;;;12.93;11.60;;;;;;;11.27;100.00;101015.81;5200736;28;20038;-80
2023/08/28 04:07:57;;;;;;;15.80;12.57;;;;;;;11.31;100.00;101017.50;5200670;28;20065;-78
2023/08/28 04:10:29;;;;;;;17.23;11.63;;;;;;;11.33;100.00;101017.47;5200635;28;20035;-78
2023/08/28 04:13:00;;;;;;;14.53;13.03;;;;;;;11.38;100.00;101017.44;5183420;28;20030;-79
2023/08/28 04:15:33;;;;;;;19.23;14.00;;;;;;;11.42;100.00;101019.13;5166982;28;20088;-79
2023/08/28 04:18:04;;;;;;;16.67;12.63;;;;;;;11.45;100.00;101016.47;5200553;28;20034;-79
2023/08/28 04:20:36;;;;;;;13.60;12.20;;;;;;;11.50;100.00;101022.50;5200725;28;20030;-78
2023/08/28 04:23:07;;;;;;;14.10;11.77;;;;;;;11.49;100.00;101021.66;5200698;28;20149;-78
2023/08/28 04:25:39;;;;;;;13.53;11.70;;;;;;;11.55;100.00;101020.69;5201241;28;20474;-78
2023/08/28 04:28:10;;;;;;;15.93;12.03;;;;;;;11.57;100.00;101025.91;5201620;28;20525;-79
2023/08/28 04:30:42;;;;;;;13.47;12.13;;;;;;;11.59;100.00;101029.34;5200482;28;20027;-79
2023/08/28 04:33:14;;;;;;;13.95;12.20;;;;;;;11.61;100.00;101031.06;5182783;28;20045;-81
2023/08/28 04:35:45;;;;;;;15.00;13.40;;;;;;;11.63;100.00;101023.22;5200643;28;20470;-78
2023/08/28 04:38:17;;;;;;;16.83;15.03;;;;;;;11.65;100.00;101034.50;5183613;28;20037;-80
2023/08/28 04:40:48;;;;;;;17.67;14.37;;;;;;;11.68;100.00;101027.47;5200768;28;20117;-79
2023/08/28 04:43:19;;;;;;;16.23;13.40;;;;;;;11.68;100.00;101021.41;5202320;28;20080;-79
2023/08/28 04:45:52;;;;;;;13.63;12.23;;;;;;;11.70;100.00;101031.81;5204307;28;20027;-80
2023/08/28 04:48:24;;;;;;;14.93;12.35;;;;;;;11.71;100.00;101025.72;5204685;28;20038;-79
2023/08/28 04:50:55;;;;;;;14.63;12.03;;;;;;;11.74;100.00;101021.31;5204182;28;20038;-80
2023/08/28 04:53:27;;;;;;;14.27;12.83;;;;;;;11.76;100.00;101018.69;5186955;28;20124;-80
2023/08/28 04:55:58;;;;;;;15.27;11.87;;;;;;;11.77;100.00;101013.44;5204321;28;20038;-79
2023/08/28 04:58:30;;;;;;;12.53;11.17;;;;;;;11.78;100.00;101012.53;5204722;28;20034;-80
2023/08/28 05:01:01;;;;;;;12.67;11.47;;;;;;;11.79;100.00;101013.41;5204088;28;20030;-79
2023/08/28 05:03:32;;;;;;;12.13;10.93;;;;;;;11.82;100.00;101009.00;5204320;28;20268;-79
2023/08/28 05:06:04;;;;;;;13.47;10.47;;;;;;;11.86;100.00;101009.81;5204070;28;20032;-79
2023/08/28 05:08:35;;;;;;;14.40;10.63;;;;;;;11.87;100.00;101001.09;5204173;28;20088;-79
2023/08/28 05:11:07;;;;;;;11.93;10.77;;;;;;;11.95;100.00;101009.72;5204240;28;20058;-80
2023/08/28 05:13:39;;;;;;;13.67;11.00;;;;;;;11.98;100.00;101008.81;5186602;28;20041;-79
2023/08/28 05:16:10;;;;;;;12.17;10.17;;;;;;;12.02;100.00;101007.88;5204270;28;20470;-78
2023/08/28 05:18:42;;;;;;;12.30;11.03;;;;;;;12.06;100.00;101012.19;5204092;28;20034;-78
2023/08/28 05:21:13;;;;;;;14.30;11.57;;;;;;;12.13;100.00;101011.19;5186716;28;20045;-79
2023/08/28 05:23:44;;;;;;;13.10;10.27;;;;;;;12.18;100.00;101003.28;5203560;28;20031;-78
2023/08/28 05:26:16;;;;;;;11.57;10.47;;;;;;;12.20;100.00;101010.22;5203785;28;20030;-80
2023/08/28 05:28:47;;;;;;;12.67;11.13;;;;;;;12.24;100.00;101000.56;5203485;28;20022;-79
2023/08/28 05:31:18;;;;;;;11.40;10.27;;;;;;;12.29;100.00;101006.59;5203097;28;20113;-80
2023/08/28 05:33:50;;;;;;;12.23;10.30;;;;;;;12.36;100.00;101008.22;5203742;28;20026;-79
2023/08/28 05:36:21;;;;;;;12.07;10.40;;;;;;;12.45;100.00;101008.97;5186557;28;20125;-79
2023/08/28 05:38:52;;;;;;;11.43;10.43;;;;;;;12.44;100.00;101002.84;5203977;28;20030;-79
2023/08/28 05:41:24;;;;;;;12.87;10.13;;;;;;;12.41;100.00;101005.50;5203864;28;20034;-79
2023/08/28 05:43:56;;;;;;;11.60;10.40;;;;;;;12.40;100.00;101001.19;5206928;28;20053;-81
2023/08/28 05:46:27;;;;;;;11.98;10.77;;;;;;;12.40;100.00;101002.03;5209814;28;20062;-79
2023/08/28 05:48:58;;;;;;;12.83;10.43;;;;;;;12.38;100.00;100998.59;5212332;28;20385;-78
2023/08/28 05:51:30;;;;;;;11.90;10.63;;;;;;;12.42;100.00;101004.63;5217102;28;20039;-79
2023/08/28 05:54:01;;;;;;;15.23;11.60;;;;;;;12.45;100.00;101011.56;5209861;28;20092;-80
2023/08/28 05:56:33;;;;;;;12.63;11.43;;;;;;;12.49;100.00;101016.69;5204407;28;20041;-80
2023/08/28 05:59:04;;;;;;;14.60;11.13;;;;;;;12.53;100.00;101022.75;5203955;28;20030;-79
2023/08/28 06:01:35;;;;;;;12.90;11.67;;;;;;;12.52;100.00;101010.56;5204677;28;20034;-80
2023/08/28 06:04:07;;;;;;;13.53;12.13;;;;;;;12.50;100.00;101007.13;5204834;28;20117;-79
2023/08/28 06:06:38;;;;;;;12.97;11.77;;;;;;;12.52;100.00;101007.94;5203896;28;20031;-78
2023/08/28 06:09:10;;;;;;;12.90;11.80;;;;;;;12.54;100.00;101014.00;5203987;28;20042;-80
2023/08/28 06:11:42;;;;;;;16.00;12.60;;;;;;;12.54;100.00;101011.38;5186139;28;20030;-80
2023/08/28 06:14:14;;;;;;;13.38;11.45;;;;;;;12.57;100.00;101007.00;5203721;28;20389;-80
2023/08/28 06:16:45;;;;;;;13.17;11.97;;;;;;;12.64;100.00;101006.84;5203023;28;20039;-80
2023/08/28 06:19:16;;;;;;;14.43;12.93;;;;;;;12.67;100.00;101001.56;5203403;28;20038;-80
2023/08/28 06:21:48;;;;;;;14.03;12.23;;;;;;;12.77;100.00;100998.78;5203252;28;20042;-80
2023/08/28 06:24:19;;;;;;;13.87;12.47;;;;;;;12.83;100.00;101008.28;5203047;28;20030;-80
2023/08/28 06:26:52;;;;;;;13.07;11.97;;;;;;;12.91;100.00;101010.72;5202754;28;20038;-80
2023/08/28 06:29:23;;;;;;;;;;;;;;;12.95;100.00;101013.25;5203152;28;20733;-79
2023/08/28 06:31:55;;;;;;;15.07;12.80;;;;;;;13.03;100.00;101009.66;5202424;28;19917;-79
2023/08/28 06:34:26;;;;;;;13.67;12.30;;;;;;;13.11;100.00;101016.44;5202793;28;20042;-79
2023/08/28 06:36:58;;;;;;;14.10;12.77;;;;;;;13.23;100.00;101010.09;5202262;28;20030;-80
2023/08/28 06:39:29;;;;;;;13.10;11.80;;;;;;;13.31;100.00;101017.78;5202900;28;20053;-81
2023/08/28 06:42:00;;;;;;;13.90;11.67;;;;;;;13.41;100.00;101018.50;5202563;28;20034;-80
2023/08/28 06:44:32;;;;;;;13.40;11.87;;;;;;;13.55;100.00;101016.44;5202205;28;20039;-81
2023/08/28 06:47:03;;;;;;;12.67;11.40;;;;;;;13.62;100.00;101022.41;5202666;28;20068;-78
2023/08/28 06:49:35;;;;;;;12.57;11.40;;;;;;;13.73;100.00;101016.94;5202594;28;20459;-80
2023/08/28 06:52:08;;;;;;;12.03;10.43;;;;;;;13.92;100.00;101020.03;5202021;28;20026;-80
2023/08/28 06:54:43;;;;;;;12.30;10.35;;;;;;;14.17;100.00;101025.56;5184950;28;20042;-80
2023/08/28 06:57:17;;;;;;;12.07;10.73;;;;;;;14.35;100.00;101037.38;5202650;28;20030;-80
2023/08/28 06:59:53;;;;;;;10.85;9.55;;;;;;;14.42;100.00;101041.53;5202091;28;20065;-80
2023/08/28 07:02:24;;;;;;;10.88;9.70;;;;;;;14.49;100.00;101043.13;5184427;28;20097;-80
2023/08/28 07:04:56;;;;;;;11.17;9.10;;;;;;;14.51;100.00;101048.34;5202017;28;20026;-80
2023/08/28 07:07:27;;;;;;;9.33;8.37;;;;;;;14.48;100.00;101046.66;5201551;28;20026;-82
2023/08/28 07:09:59;;;;;;;9.37;8.43;;;;;;;14.53;100.00;101052.63;5206146;28;20065;-80
2023/08/28 07:12:30;;;;;;;12.17;9.67;;;;;;;14.62;100.00;101053.34;5207463;28;20028;-78
2023/08/28 07:15:14;;;;;;;9.30;8.00;;;;;;;14.58;100.00;101057.78;5193691;28;20038;-79
2023/08/28 07:17:45;;;;;;;11.98;8.90;;;;;;;14.56;100.00;101049.09;5208650;28;20376;-80
2023/08/28 07:20:17;;;;;;;9.17;8.23;;;;;;;14.60;100.00;101058.63;5208798;28;20168;-81
2023/08/28 07:22:49;;;;;;;9.57;8.63;;;;;;;14.63;100.00;101065.56;5210493;28;20035;-79
2023/08/28 07:25:24;;;;;;;11.25;9.45;;;;;;;14.78;100.00;101062.56;5212636;28;20102;-80
2023/08/28 07:27:55;;;;;;;13.00;9.38;;;;;;;14.85;100.00;101052.75;5212160;28;20039;-79
2023/08/28 07:30:26;;;;;;;10.63;8.90;;;;;;;15.01;100.00;101050.59;5212958;28;20041;-79
2023/08/28 07:32:58;;;;;;;9.97;9.10;;;;;;;15.21;100.00;101045.63;5192838;28;20034;-80
2023/08/28 07:35:34;;;;;;;10.27;8.37;;;;;;;15.31;100.00;101041.84;5211574;28;20073;-80
2023/08/28 07:38:06;;;;;;;10.70;8.13;;;;;;;15.55;100.00;101047.28;5210058;28;20042;-80
2023/08/28 07:40:37;;;;;;;8.75;7.85;;;;;;;15.73;100.00;101045.03;5210532;28;20038;-79
2023/08/28 07:43:09;;;;;;;9.83;7.83;;;;;;;16.02;100.00;101044.19;5192510;28;20044;-79
2023/08/28 07:45:40;;;;;;;8.60;7.67;;;;;;;16.39;100.00;101043.84;5209767;28;20030;-80
2023/08/28 07:48:12;;;;;;;9.50;6.93;;;;;;;16.76;100.00;101053.16;5209889;28;20537;-80
2023/08/28 07:50:45;;;;;;;10.70;7.18;;;;;;;16.87;100.00;101055.44;5208533;28;20084;-80
2023/08/28 07:53:16;;;;;;;7.45;6.28;;;;;;;17.06;99.62;101060.91;5209223;28;20405;-80
2023/08/28 07:55:48;;;;;;;10.10;6.23;;;;;;;17.23;97.83;101057.69;5207204;28;20034;-79
2023/08/28 07:58:19;;;;;;;7.15;5.78;;;;;;;17.22;95.87;101060.38;5207616;28;20112;-80
2023/08/28 08:00:51;;;;;;;10.60;6.43;;;;;;;17.36;96.95;101060.72;5206632;28;20080;-80
2023/08/28 08:03:22;;;;;;;6.60;5.90;;;;;;;17.43;94.88;101054.31;5206669;28;20054;-81
2023/08/28 08:05:54;;;;;;;10.27;5.73;;;;;;;17.52;93.88;101055.75;5207152;28;20260;-80
2023/08/28 08:08:25;;;;;;;7.17;5.83;;;;;;;17.47;95.23;101060.34;5206544;28;20030;-80
2023/08/28 08:10:57;;;;;;;7.87;7.07;;;;;;;17.71;93.64;101060.31;5205159;28;20737;-79
2023/08/28 08:13:29;;;;;;;7.10;6.33;;;;;;;17.58;92.99;101055.53;5204922;28;20026;-80
2023/08/28 08:16:04;;;;;;;7.93;6.07;;;;;;;17.84;95.66;101057.16;5203021;28;20069;-80
2023/08/28 08:18:36;;;;;;;8.90;6.43;;;;;;;18.21;95.36;101061.00;5206163;28;20026;-80
2023/08/28 08:21:07;;;;;;;10.40;6.80;;;;;;;18.22;89.64;101053.94;5207133;28;20034;-81
2023/08/28 08:23:39;;;;;;;6.43;5.57;;;;;;;17.96;89.02;101057.63;5206389;28;20467;-78
2023/08/28 08:26:11;;;;;;;8.60;6.57;;;;;;;17.86;90.06;101055.31;5205783;28;20034;-80
2023/08/28 08:28:43;;;;;;;6.87;6.17;;;;;;;17.96;90.86;101055.84;5205845;28;20038;-79
2023/08/28 08:31:14;;;;;;;10.20;6.57;;;;;;;17.91;91.70;101055.16;5204842;28;20030;-79
2023/08/28 08:33:45;;;;;;;10.00;6.67;;;;;;;17.76;91.71;101053.97;5205750;28;20356;-80
2023/08/28 08:36:17;;;;;;;7.80;5.93;;;;;;;17.64;91.05;101060.53;5205649;28;20133;-80
2023/08/28 08:38:48;;;;;;;7.37;5.30;;;;;;;17.68;92.50;101067.44;5205503;28;20034;-80
2023/08/28 08:41:20;;;;;;;5.70;5.10;;;;;;;17.74;91.24;101066.34;5206168;28;20034;-80
2023/08/28 08:43:51;;;;;;;7.10;5.40;;;;;;;17.52;91.65;101076.84;5187911;28;20061;-81
2023/08/28 08:46:25;;;;;;;9.40;5.97;;;;;;;17.30;93.40;101072.34;5189288;28;20042;-80
2023/08/28 08:49:00;;;;;;;9.77;6.45;;;;;;;17.21;94.50;101074.44;5188224;28;20069;-79
2023/08/28 08:51:33;;;;;;;6.53;5.93;;;;;;;17.35;93.63;101066.91;5192257;28;20061;-79
2023/08/28 08:54:12;;;;;;;6.00;5.20;;;;;;;17.56;93.06;101074.94;5209171;28;20038;-79
2023/08/28 08:56:48;;;;;;;7.60;5.80;;;;;;;17.75;91.49;101068.06;5189929;28;20054;-80
2023/08/28 08:59:24;;;;;;;6.07;5.18;;;;;;;17.91;88.48;101078.06;5204534;28;20030;-80
2023/08/28 09:01:55;;;;;;;6.50;3.92;;;;;;;18.20;87.01;101069.84;5205658;28;20035;-80
2023/08/28 09:04:27;;;;;;;8.87;4.43;;;;;;;18.33;87.25;101078.13;5206434;28;20061;-81
2023/08/28 09:06:58;;;;;;;7.30;4.50;;;;;;;18.32;84.65;101079.06;5205149;28;20061;-80
2023/08/28 09:09:31;;;;;;;5.57;3.33;;;;;;;18.56;81.72;101078.94;5204852;28;20460;-80
2023/08/28 09:12:03;;;;;;;5.70;2.80;;;;;;;18.58;81.58;101079.78;5205454;28;20038;-81
2023/08/28 09:14:36;;;;;;;5.50;3.17;;;;;;;18.71;81.94;101066.91;5204930;28;20035;-82
2023/08/28 09:17:07;;;;;;;5.85;3.10;;;;;;;18.89;79.60;101067.94;5205088;28;20459;-82
2023/08/28 09:19:39;;;;;;;6.10;2.97;;;;;;;19.25;78.77;101060.16;5204408;28;20041;-81
2023/08/28 09:22:10;;;;;;;6.00;3.23;;;;;;;19.68;77.38;101057.34;5186792;28;20061;-82
2023/08/28 09:24:42;;;;;;;3.20;1.53;;;;;;;20.11;69.92;101065.06;5204156;28;20081;-83
2023/08/28 09:27:13;;;;;;;3.90;2.00;;;;;;;20.33;71.58;101057.78;5204290;28;20113;-80
2023/08/28 09:29:45;;;;;;;2.60;2.00;;;;;;;20.48;69.81;101068.56;5204576;28;20030;-81
2023/08/28 09:32:16;;;;;;;4.93;2.90;;;;;;;20.63;69.86;101072.25;5204442;28;20038;-82
2023/08/28 09:34:47;;;;;;;4.17;2.60;;;;;;;21.25;68.05;101067.28;5204374;28;20030;-81
2023/08/28 09:37:19;;;;;;;2.83;2.17;;;;;;;21.10;64.27;101069.81;5204255;28;20038;-81
2023/08/28 09:39:56;;;;;;;4.03;2.20;;;;;;;20.63;65.88;101077.53;5204236;28;20030;-80
2023/08/28 09:42:27;;;;;;;3.75;2.70;;;;;;;21.40;65.00;101076.25;5186667;28;20077;-81
2023/08/28 09:45:06;;;;;;;3.63;2.57;;;;;;;21.33;65.56;101074.84;5204349;28;20069;-81
2023/08/28 09:47:37;;;;;;;4.05;2.33;;;;;;;21.37;65.66;101069.28;5204319;28;20030;-81
2023/08/28 09:50:09;;;;;;;2.83;2.47;;;;;;;21.05;63.16;101074.50;5203746;28;20061;-81
2023/08/28 09:52:41;;;;;;;3.65;2.60;;;;;;;20.87;64.29;101080.78;5187088;28;20065;-81
2023/08/28 09:55:12;;;;;;;3.20;2.33;;;;;;;20.93;65.20;101080.47;5204521;28;20482;-81
2023/08/28 09:57:45;;;;;;;3.10;2.20;;;;;;;20.99;65.95;101079.28;5204618;28;20057;-83
2023/08/28 10:00:16;;;;;;;5.53;2.75;;;;;;;21.23;64.94;101069.19;5204998;28;20034;-82
2023/08/28 10:02:50;;;;;;;4.20;2.97;;;;;;;21.95;65.79;101075.03;5204339;28;20058;-83
2023/08/28 10:05:22;;;;;;;4.38;3.00;;;;;;;21.89;64.32;101070.91;5204929;28;20486;-82
2023/08/28 10:07:57;;;;;;;;;;;;;;;22.56;61.34;101073.34;5205175;28;20084;-81
2023/08/28 10:10:29;;;;;;;4.07;2.55;;;;;;;22.36;61.85;101074.50;5205108;28;19926;-82
2023/08/28 10:13:06;;;;;;;4.53;2.40;;;;;;;23.60;59.50;101073.28;5204519;28;20034;-83
2023/08/28 10:15:41;;;;;;;3.55;2.58;;;;;;;24.22;57.65;101064.91;5203967;28;20028;-83
2023/08/28 10:18:21;;;;;;;5.22;2.60;;;;;;;24.35;54.14;101062.28;5204390;28;20027;-84
2023/08/28 10:20:54;;;;;;;3.75;1.77;;;;;;;25.00;52.23;101063.28;5205152;28;20030;-81
2023/08/28 10:23:27;;;;;;;4.53;2.17;;;;;;;24.72;48.70;101062.50;5205606;28;20037;-82
2023/08/28 10:26:01;;;;;;;3.70;2.25;;;;;;;25.33;50.62;101057.44;5204691;28;20034;-83
2023/08/28 10:28:33;;;;;;;2.58;1.27;;;;;;;24.85;49.38;101068.69;5205154;28;20027;-81
2023/08/28 10:31:07;;;;;;;3.70;1.63;;;;;;;24.75;50.04;101068.47;5188427;28;20133;-81
2023/08/28 10:33:38;;;;;;;1.98;1.77;;;;;;;24.49;52.21;101061.34;5203329;28;20105;-80
2023/08/28 10:36:12;;;;;;;3.25;1.75;;;;;;;24.52;51.15;101058.47;5205511;28;20062;-82
2023/08/28 10:38:45;;;;;;;2.08;1.63;;;;;;;24.18;50.06;101058.06;5206147;28;20486;-81
2023/08/28 10:41:17;;;;;;;3.00;1.88;;;;;;;23.41;51.67;101057.63;5205904;28;20089;-82
2023/08/28 10:43:50;;;;;;;1.73;1.30;;;;;;;22.94;51.00;101060.44;5205995;28;20061;-82
2023/08/28 10:46:23;;;;;;;4.35;2.13;;;;;;;22.80;51.25;101059.53;5188420;28;20430;-82
2023/08/28 10:48:59;;;;;;;5.22;1.60;;;;;;;22.32;53.40;101065.03;5207990;28;20142;-82
2023/08/28 10:51:32;;;;;;;3.03;1.63;;;;;;;22.73;56.29;101059.06;5206027;28;20474;-82
2023/08/28 10:54:06;;;;;;;2.38;1.38;;;;;;;22.40;53.84;101060.97;5203726;28;20046;-84
2023/08/28 10:56:39;;;;;;;2.40;1.58;;;;;;;22.10;55.94;101060.88;5203012;28;20057;-82
2023/08/28 10:59:19;;;;;;;2.70;1.80;;;;;;;21.58;58.80;101050.53;5202948;28;20446;-82
2023/08/28 11:01:55;;;;;;;2.80;1.88;;;;;;;21.16;59.42;101054.53;5202739;28;20042;-83
2023/08/28 11:04:35;;;;;;;2.95;2.13;;;;;;;20.82;60.92;101058.94;5202502;28;20539;-82
2023/08/28 11:07:25;;;;;;;4.25;2.42;;;;;;;20.73;62.02;101055.81;5202090;28;20042;-83
2023/08/28 11:10:18;;;;;;;3.65;2.38;;;;;;;20.92;62.33;101053.09;5202467;28;20061;-82
2023/08/28 11:12:55;;;;;;;5.05;2.70;;;;;;;20.71;63.19;101048.91;5201722;28;20027;-82
2023/08/28 11:15:31;;;;;;;4.72;1.90;;;;;;;20.81;60.52;101049.28;5202163;28;20422;-81
2023/08/28 11:18:19;;;;;;;3.63;2.20;;;;;;;21.51;63.65;101039.41;5202038;28;20037;-81
2023/08/28 11:20:52;;;;;;;5.97;2.00;;;;;;;22.02;59.56;101033.91;5202168;28;20521;-82
2023/08/28 11:23:34;;;;;;;2.40;1.70;;;;;;;23.73;56.43;101033.44;5202967;28;20069;-81
2023/08/28 11:26:17;;;;;;;2.65;1.88;;;;;;;25.19;51.40;101038.84;5201708;28;20030;-82
2023/08/28 11:28:50;;;;;;;3.17;1.60;;;;;;;25.80;46.52;101029.13;5201593;28;20045;-81
2023/08/28 11:31:33;;;;;;;1.67;1.50;;;;;;;25.72;45.99;101036.84;5201529;28;20031;-82
2023/08/28 11:34:12;;;;;;;3.47;1.70;;;;;;;24.86;48.89;101048.22;5201680;28;20039;-83
2023/08/28 11:36:45;;;;;;;2.65;1.52;;;;;;;24.23;49.75;101034.66;5202041;28;20118;-83
2023/08/28 11:39:23;;;;;;;2.20;1.95;;;;;;;22.99;53.51;101036.25;5201896;28;20057;-83